createdAt,value
2018-01-30T00:01:41.592Z,8.69
2018-01-30T00:04:14.101Z,8.75
2018-01-30T00:06:46.621Z,8.63
2018-01-30T00:09:19.107Z,8.71
2018-01-30T00:11:51.708Z,8.61
2018-01-30T00:14:24.222Z,8.61
2018-01-30T00:16:57.752Z,8.44
2018-01-30T00:19:30.255Z,8.63
2018-01-30T00:22:02.769Z,8.55
2018-01-30T00:24:35.257Z,8.53
2018-01-30T00:27:09.729Z,8.62
2018-01-30T00:29:42.239Z,8.64
2018-01-30T00:32:14.760Z,8.70
2018-01-30T00:34:47.265Z,8.57
2018-01-30T00:37:19.787Z,8.55
2018-01-30T00:39:52.399Z,8.60
2018-01-30T00:42:24.915Z,8.48
2018-01-30T00:44:57.395Z,8.36
2018-01-30T00:47:29.908Z,8.43
2018-01-30T00:50:02.401Z,8.45
2018-01-30T00:52:34.941Z,8.59
2018-01-30T00:55:07.444Z,8.40
2018-01-30T00:57:39.964Z,8.52
2018-01-30T01:00:12.460Z,8.50
2018-01-30T01:02:44.987Z,8.64
2018-01-30T01:05:17.484Z,8.55
2018-01-30T01:07:49.996Z,8.48
2018-01-30T01:10:22.471Z,8.60
2018-01-30T01:12:55.014Z,8.53
2018-01-30T01:15:27.515Z,8.67
2018-01-30T01:18:00.029Z,8.78
2018-01-30T01:20:32.523Z,8.70
2018-01-30T01:23:05.031Z,8.62
2018-01-30T01:25:37.520Z,8.50
2018-01-30T01:28:10.030Z,8.46
2018-01-30T01:30:42.530Z,8.67
2018-01-30T01:33:15.046Z,8.58
2018-01-30T01:35:47.535Z,8.66
2018-01-30T01:38:20.057Z,8.66
2018-01-30T01:40:52.545Z,8.63
2018-01-30T01:43:25.084Z,8.64
2018-01-30T01:45:57.579Z,8.61
2018-01-30T01:48:30.090Z,8.67
2018-01-30T01:51:02.579Z,8.72
2018-01-30T01:53:35.082Z,8.63
2018-01-30T01:56:07.570Z,8.38
2018-01-30T01:58:40.092Z,8.41
2018-01-30T02:01:12.612Z,8.50
2018-01-30T02:03:45.124Z,8.50
2018-01-30T02:06:17.620Z,8.44
2018-01-30T02:08:50.141Z,8.50
2018-01-30T02:11:22.623Z,8.45
2018-01-30T02:13:55.961Z,8.42
2018-01-30T02:16:28.463Z,8.46
2018-01-30T02:19:00.981Z,8.50
2018-01-30T02:21:33.476Z,8.23
2018-01-30T02:24:05.982Z,8.20
2018-01-30T02:26:38.471Z,8.19
2018-01-30T02:29:10.984Z,8.09
2018-01-30T02:31:43.475Z,8.14
2018-01-30T02:34:16.046Z,8.12
2018-01-30T02:36:48.558Z,8.04
2018-01-30T02:39:21.087Z,8.03
2018-01-30T02:41:53.590Z,7.99
2018-01-30T02:44:26.110Z,7.99
2018-01-30T02:46:58.630Z,8.08
2018-01-30T02:49:31.126Z,8.04
2018-01-30T02:52:03.668Z,8.00
2018-01-30T02:54:36.241Z,8.08
2018-01-30T02:57:08.774Z,8.09
2018-01-30T02:59:41.264Z,8.09
2018-01-30T03:02:13.777Z,8.12
2018-01-30T03:04:46.272Z,8.00
2018-01-30T03:07:18.782Z,8.02
2018-01-30T03:09:51.289Z,7.98
2018-01-30T03:12:23.800Z,8.10
2018-01-30T03:14:56.285Z,8.20
2018-01-30T03:17:28.786Z,8.13
2018-01-30T03:20:01.281Z,8.10
2018-01-30T03:22:33.789Z,8.10
2018-01-30T03:25:06.276Z,7.97
2018-01-30T03:27:38.782Z,8.00
2018-01-30T03:30:11.283Z,8.12
2018-01-30T03:32:43.809Z,8.16
2018-01-30T03:35:16.296Z,8.19
2018-01-30T03:37:48.803Z,8.26
2018-01-30T03:40:21.290Z,8.24
2018-01-30T03:42:53.799Z,7.98
2018-01-30T03:45:26.282Z,8.08
2018-01-30T03:47:58.812Z,8.00
2018-01-30T03:50:31.303Z,8.14
2018-01-30T03:53:03.815Z,8.07
2018-01-30T03:55:36.311Z,8.06
2018-01-30T03:58:08.822Z,8.06
2018-01-30T04:00:41.319Z,8.12
2018-01-30T04:03:13.835Z,8.05
2018-01-30T04:05:46.319Z,8.16
2018-01-30T04:08:18.857Z,8.07
2018-01-30T04:10:51.348Z,8.12
2018-01-30T04:13:23.856Z,8.11
2018-01-30T04:15:56.351Z,7.99
2018-01-30T04:18:28.864Z,7.97
2018-01-30T04:21:01.403Z,8.05
2018-01-30T04:23:33.923Z,8.03
2018-01-30T04:26:06.420Z,7.99
2018-01-30T04:28:38.932Z,7.76
2018-01-30T04:31:11.443Z,7.90
2018-01-30T04:33:43.957Z,7.81
2018-01-30T04:36:16.446Z,7.79
2018-01-30T04:38:48.972Z,7.77
2018-01-30T04:41:21.470Z,7.74
2018-01-30T04:43:53.975Z,7.74
2018-01-30T04:46:26.505Z,7.61
2018-01-30T04:48:59.057Z,7.54
2018-01-30T04:51:31.571Z,7.64
2018-01-30T04:54:04.082Z,7.67
2018-01-30T04:56:36.586Z,7.70
2018-01-30T04:59:09.101Z,7.61
2018-01-30T05:01:41.601Z,7.70
2018-01-30T05:04:14.118Z,7.76
2018-01-30T05:06:46.604Z,7.68
2018-01-30T05:09:19.116Z,7.69
2018-01-30T05:11:51.607Z,7.69
2018-01-30T05:14:24.116Z,7.50
2018-01-30T05:16:56.639Z,7.60
2018-01-30T05:19:29.151Z,7.74
2018-01-30T05:22:01.637Z,7.84
2018-01-30T05:24:34.224Z,7.81
2018-01-30T05:27:06.716Z,7.78
2018-01-30T05:29:39.232Z,7.97
2018-01-30T05:32:11.729Z,7.93
2018-01-30T05:34:44.237Z,8.01
2018-01-30T05:37:16.750Z,7.97
2018-01-30T05:39:49.254Z,8.07
2018-01-30T05:42:21.772Z,8.07
2018-01-30T05:44:54.303Z,8.03
2018-01-30T05:47:26.809Z,7.91
2018-01-30T05:49:59.338Z,7.82
2018-01-30T05:52:31.826Z,7.99
2018-01-30T05:55:04.335Z,8.04
2018-01-30T05:57:36.826Z,7.98
2018-01-30T06:00:09.344Z,8.00
2018-01-30T06:02:41.839Z,7.99
2018-01-30T06:05:14.345Z,8.00
2018-01-30T06:07:46.838Z,7.98
2018-01-30T06:10:19.372Z,7.93
2018-01-30T06:12:51.864Z,7.90
2018-01-30T06:15:24.372Z,7.74
2018-01-30T06:17:56.872Z,7.77
2018-01-30T06:20:29.492Z,7.92
2018-01-30T06:23:02.016Z,7.83
2018-01-30T06:25:34.529Z,7.88
2018-01-30T06:28:07.066Z,7.83
2018-01-30T06:30:39.556Z,7.73
2018-01-30T06:33:12.061Z,7.73
2018-01-30T06:35:44.607Z,7.66
2018-01-30T06:38:17.148Z,7.68
2018-01-30T06:40:49.646Z,7.79
2018-01-30T06:43:22.152Z,7.83
2018-01-30T06:45:54.670Z,7.81
2018-01-30T06:48:27.185Z,7.70
2018-01-30T06:50:59.678Z,7.79
2018-01-30T06:53:32.266Z,7.91
2018-01-30T06:56:04.760Z,7.82
2018-01-30T06:58:37.268Z,7.85
2018-01-30T07:01:09.763Z,7.97
2018-01-30T07:03:42.299Z,7.99
2018-01-30T07:06:14.818Z,8.05
2018-01-30T07:08:47.347Z,8.04
2018-01-30T07:11:19.834Z,8.13
2018-01-30T07:13:52.352Z,8.08
2018-01-30T07:16:24.852Z,7.99
2018-01-30T07:18:57.372Z,8.12
2018-01-30T07:21:29.871Z,7.97
2018-01-30T07:24:02.375Z,8.13
2018-01-30T07:26:34.871Z,8.10
2018-01-30T07:29:07.425Z,8.22
2018-01-30T07:31:39.916Z,8.26
2018-01-30T07:34:12.437Z,8.26
2018-01-30T07:36:44.925Z,8.22
2018-01-30T07:39:17.447Z,8.35
2018-01-30T07:41:49.956Z,8.17
2018-01-30T07:44:22.483Z,8.28
2018-01-30T07:46:57.995Z,8.32
2018-01-30T07:49:30.509Z,8.46
2018-01-30T07:52:03.069Z,8.17
2018-01-30T07:54:35.575Z,8.39
2018-01-30T07:57:08.076Z,8.44
2018-01-30T07:59:40.618Z,8.50
2018-01-30T08:02:13.102Z,8.51
2018-01-30T08:04:45.616Z,8.35
2018-01-30T08:07:18.112Z,8.45
2018-01-30T08:09:50.643Z,8.50
2018-01-30T08:12:23.128Z,8.47
2018-01-30T08:14:55.635Z,8.42
2018-01-30T08:17:28.153Z,8.62
2018-01-30T08:20:00.726Z,8.68
2018-01-30T08:22:33.267Z,8.66
2018-01-30T08:25:05.772Z,8.78
2018-01-30T08:27:38.255Z,8.78
2018-01-30T08:30:10.780Z,8.75
2018-01-30T08:32:43.315Z,8.75
2018-01-30T08:35:15.859Z,8.65
2018-01-30T08:37:48.359Z,8.70
2018-01-30T08:40:20.884Z,8.64
2018-01-30T08:42:53.368Z,8.71
2018-01-30T08:45:25.883Z,8.87
2018-01-30T08:47:58.691Z,8.90
2018-01-30T08:50:31.208Z,8.84
2018-01-30T08:53:03.700Z,8.83
2018-01-30T08:55:36.210Z,8.87
2018-01-30T08:58:08.715Z,8.90
2018-01-30T09:00:41.237Z,8.94
2018-01-30T09:03:13.724Z,8.99
2018-01-30T09:05:46.240Z,9.10
2018-01-30T09:08:18.726Z,9.27
2018-01-30T09:10:51.240Z,9.31
2018-01-30T09:13:23.731Z,9.33
2018-01-30T09:15:56.236Z,9.42
2018-01-30T09:18:28.718Z,9.42
2018-01-30T09:21:01.232Z,9.24
2018-01-30T09:23:33.729Z,9.13
2018-01-30T09:26:06.248Z,9.18
2018-01-30T09:28:38.739Z,9.24
2018-01-30T09:31:11.249Z,9.24
2018-01-30T09:33:43.737Z,9.29
2018-01-30T09:36:16.247Z,9.30
2018-01-30T09:38:48.739Z,9.27
2018-01-30T09:41:21.247Z,9.08
2018-01-30T09:43:53.749Z,9.03
2018-01-30T09:46:26.271Z,9.12
2018-01-30T09:48:58.757Z,9.33
2018-01-30T09:51:31.287Z,9.28
2018-01-30T09:54:03.796Z,9.41
2018-01-30T09:56:36.290Z,9.60
2018-01-30T09:59:08.822Z,9.59
2018-01-30T10:01:41.319Z,9.61
2018-01-30T10:04:13.850Z,9.68
2018-01-30T10:06:46.349Z,9.75
2018-01-30T10:09:18.864Z,9.76
2018-01-30T10:11:51.369Z,9.76
2018-01-30T10:14:23.888Z,9.60
2018-01-30T10:16:56.380Z,9.52
2018-01-30T10:19:28.900Z,9.51
2018-01-30T10:22:01.396Z,9.66
2018-01-30T10:24:33.924Z,9.60
2018-01-30T10:27:06.417Z,9.74
2018-01-30T10:29:38.930Z,9.76
2018-01-30T10:32:11.423Z,9.82
2018-01-30T10:34:43.937Z,9.83
2018-01-30T10:37:16.430Z,9.74
2018-01-30T10:39:48.943Z,9.84
2018-01-30T10:42:21.447Z,9.65
2018-01-30T10:44:53.956Z,9.91
2018-01-30T10:47:26.470Z,9.93
2018-01-30T10:49:58.998Z,9.73
2018-01-30T10:52:31.491Z,9.78
2018-01-30T10:55:04.011Z,9.73
2018-01-30T10:57:36.515Z,9.80
2018-01-30T11:00:09.033Z,9.50
2018-01-30T11:02:41.521Z,9.56
2018-01-30T11:05:14.032Z,9.67
2018-01-30T11:07:46.527Z,9.70
2018-01-30T11:10:19.068Z,9.74
2018-01-30T11:12:51.561Z,9.91
2018-01-30T11:15:24.066Z,9.60
2018-01-30T11:17:56.553Z,9.50
2018-01-30T11:20:29.066Z,9.56
2018-01-30T11:23:01.566Z,9.63
2018-01-30T11:25:34.078Z,9.68
2018-01-30T11:28:06.576Z,9.66
2018-01-30T11:30:39.101Z,9.60
2018-01-30T11:33:11.604Z,9.62
2018-01-30T11:35:44.184Z,9.63
2018-01-30T11:38:16.676Z,9.79
2018-01-30T11:40:49.193Z,9.70
2018-01-30T11:43:21.699Z,9.70
2018-01-30T11:45:54.224Z,9.79
2018-01-30T11:48:26.719Z,9.64
2018-01-30T11:50:59.231Z,9.55
2018-01-30T11:53:31.736Z,9.63
2018-01-30T11:56:04.252Z,9.75
2018-01-30T11:58:36.736Z,9.79
2018-01-30T12:01:09.260Z,10.00
2018-01-30T12:03:41.756Z,9.79
2018-01-30T12:06:14.276Z,10.08
2018-01-30T12:08:46.795Z,10.30
2018-01-30T12:11:19.322Z,10.28
2018-01-30T12:13:51.815Z,10.21
2018-01-30T12:16:24.339Z,10.03
2018-01-30T12:18:56.859Z,9.87
2018-01-30T12:21:29.386Z,10.19
2018-01-30T12:24:01.886Z,10.23
2018-01-30T12:26:34.463Z,10.22
2018-01-30T12:29:06.927Z,10.18
2018-01-30T12:31:39.449Z,10.21
2018-01-30T12:34:11.936Z,10.26
2018-01-30T12:36:44.452Z,10.24
2018-01-30T12:39:16.954Z,10.15
2018-01-30T12:41:49.472Z,10.11
2018-01-30T12:44:21.976Z,10.05
2018-01-30T12:46:54.495Z,9.90
2018-01-30T12:49:27.002Z,9.88
2018-01-30T12:51:59.511Z,9.73
2018-01-30T12:54:31.995Z,9.50
2018-01-30T12:57:04.518Z,9.67
2018-01-30T12:59:37.013Z,9.91
2018-01-30T13:02:09.626Z,9.95
2018-01-30T13:04:42.035Z,9.44
2018-01-30T13:07:14.548Z,9.46
2018-01-30T13:09:47.031Z,9.93
2018-01-30T13:12:19.556Z,10.26
2018-01-30T13:14:52.060Z,10.30
2018-01-30T13:17:24.578Z,10.41
2018-01-30T13:19:57.108Z,10.17
2018-01-30T13:22:29.630Z,10.44
2018-01-30T13:25:02.156Z,10.55
2018-01-30T13:27:34.668Z,10.46
2018-01-30T13:30:07.230Z,10.43
2018-01-30T13:32:39.725Z,10.29
2018-01-30T13:35:12.242Z,10.34
2018-01-30T13:37:44.754Z,10.12
2018-01-30T13:40:17.271Z,9.92
2018-01-30T13:42:49.761Z,9.77
2018-01-30T13:45:22.288Z,9.63
2018-01-30T13:47:54.807Z,9.68
2018-01-30T13:50:27.335Z,9.66
2018-01-30T13:52:59.834Z,9.52
2018-01-30T13:55:32.354Z,9.42
2018-01-30T13:58:04.871Z,9.40
2018-01-30T14:00:37.374Z,9.38
2018-01-30T14:03:09.867Z,9.46
2018-01-30T14:05:42.368Z,9.27
2018-01-30T14:08:14.871Z,9.34
2018-01-30T14:10:47.390Z,9.41
2018-01-30T14:13:19.880Z,9.36
2018-01-30T14:15:52.400Z,9.20
2018-01-30T14:18:24.928Z,9.06
2018-01-30T14:20:57.427Z,9.07
2018-01-30T14:23:29.919Z,9.14
2018-01-30T14:26:02.436Z,9.11
2018-01-30T14:28:34.929Z,9.11
2018-01-30T14:31:07.452Z,9.18
2018-01-30T14:33:39.942Z,9.25
2018-01-30T14:36:12.450Z,9.44
2018-01-30T14:38:44.937Z,9.45
2018-01-30T14:41:17.471Z,9.49
2018-01-30T14:43:49.964Z,9.50
2018-01-30T14:46:22.462Z,9.55
2018-01-30T14:48:54.976Z,9.55
2018-01-30T14:51:27.488Z,9.33
2018-01-30T14:53:59.994Z,9.32
2018-01-30T14:56:32.496Z,9.14
2018-01-30T14:59:04.991Z,9.28
2018-01-30T15:01:37.508Z,9.20
2018-01-30T15:04:10.010Z,9.26
2018-01-30T15:06:42.528Z,9.25
2018-01-30T15:09:15.026Z,9.08
2018-01-30T15:11:47.532Z,8.90
2018-01-30T15:14:20.023Z,8.91
2018-01-30T15:16:52.534Z,9.05
2018-01-30T15:19:26.686Z,8.96
2018-01-30T15:21:59.202Z,8.90
2018-01-30T15:24:31.708Z,9.03
2018-01-30T15:27:04.220Z,9.20
2018-01-30T15:29:36.706Z,9.22
2018-01-30T15:32:09.215Z,9.24
2018-01-30T15:34:41.698Z,9.36
2018-01-30T15:37:14.218Z,9.36
2018-01-30T15:39:46.783Z,9.39
2018-01-30T15:42:19.267Z,9.32
2018-01-30T15:44:51.746Z,9.34
2018-01-30T15:47:24.272Z,9.40
2018-01-30T15:49:56.805Z,9.39
2018-01-30T15:52:29.326Z,9.33
2018-01-30T15:55:01.840Z,9.31
2018-01-30T15:57:34.359Z,9.19
2018-01-30T16:00:06.850Z,9.14
2018-01-30T16:02:39.379Z,9.08
2018-01-30T16:05:11.864Z,8.92
2018-01-30T16:07:44.379Z,8.99
2018-01-30T16:10:16.861Z,9.00
2018-01-30T16:12:49.374Z,8.97
2018-01-30T16:15:21.879Z,9.03
2018-01-30T16:17:54.380Z,9.01
2018-01-30T16:20:27.819Z,9.06
2018-01-30T16:23:00.361Z,8.98
2018-01-30T16:25:32.852Z,8.96
2018-01-30T16:28:05.748Z,8.97
2018-01-30T16:30:38.244Z,8.93
2018-01-30T16:33:10.765Z,8.86
2018-01-30T16:35:43.269Z,8.74
2018-01-30T16:38:15.779Z,8.74
2018-01-30T16:40:48.291Z,8.65
2018-01-30T16:43:20.815Z,8.68
2018-01-30T16:45:53.305Z,8.72
2018-01-30T16:48:27.928Z,8.76
2018-01-30T16:51:00.463Z,8.83
2018-01-30T16:53:32.993Z,8.82
2018-01-30T16:56:05.502Z,8.78
2018-01-30T16:58:38.021Z,8.68
2018-01-30T17:01:10.537Z,8.61
2018-01-30T17:03:43.076Z,8.48
2018-01-30T17:06:15.719Z,8.48
2018-01-30T17:08:48.234Z,8.47
2018-01-30T17:11:20.817Z,8.45
2018-01-30T17:13:53.447Z,8.40
2018-01-30T17:16:25.984Z,8.37
2018-01-30T17:18:58.625Z,8.22
2018-01-30T17:21:31.175Z,8.18
2018-01-30T17:24:03.833Z,8.18
2018-01-30T17:26:36.343Z,8.20
2018-01-30T17:29:08.836Z,8.18
2018-01-30T17:31:41.721Z,8.15
2018-01-30T17:34:14.227Z,8.08
2018-01-30T17:36:46.779Z,7.99
2018-01-30T17:39:19.266Z,7.98
2018-01-30T17:41:51.788Z,7.90
2018-01-30T17:44:24.288Z,7.86
2018-01-30T17:46:56.833Z,7.77
2018-01-30T17:49:29.318Z,7.77
2018-01-30T17:52:01.828Z,7.77
2018-01-30T17:54:34.343Z,7.55
2018-01-30T17:57:06.863Z,7.63
2018-01-30T17:59:39.358Z,7.56
2018-01-30T18:02:11.863Z,7.62
2018-01-30T18:04:44.892Z,7.63
2018-01-30T18:07:17.597Z,7.46
2018-01-30T18:09:50.998Z,7.49
2018-01-30T18:12:23.515Z,7.47
2018-01-30T18:14:56.007Z,7.45
2018-01-30T18:17:28.520Z,7.47
2018-01-30T18:20:01.022Z,7.48
2018-01-30T18:22:33.533Z,7.38
2018-01-30T18:25:06.022Z,7.35
2018-01-30T18:27:38.528Z,7.35
2018-01-30T18:30:11.272Z,7.37
2018-01-30T18:32:43.831Z,7.40
2018-01-30T18:35:16.420Z,7.34
2018-01-30T18:37:48.963Z,7.40
2018-01-30T18:40:21.452Z,7.38
2018-01-30T18:42:54.037Z,7.42
2018-01-30T18:45:26.903Z,7.41
2018-01-30T18:48:00.550Z,7.39
2018-01-30T18:50:34.830Z,7.36
2018-01-30T18:53:07.329Z,7.31
2018-01-30T18:55:40.306Z,7.31
2018-01-30T18:58:12.851Z,7.26
2018-01-30T19:00:45.355Z,7.13
2018-01-30T19:03:18.855Z,7.13
2018-01-30T19:05:51.347Z,7.14
2018-01-30T19:08:23.852Z,7.16
2018-01-30T19:10:56.498Z,7.20
2018-01-30T19:13:29.095Z,7.21
2018-01-30T19:16:01.594Z,7.18
2018-01-30T19:18:34.232Z,7.20
2018-01-30T19:21:06.723Z,7.21
2018-01-30T19:23:39.246Z,7.18
2018-01-30T19:26:11.739Z,7.19
2018-01-30T19:28:44.253Z,7.17
2018-01-30T19:31:16.750Z,7.16
2018-01-30T19:33:49.267Z,7.17
2018-01-30T19:36:21.766Z,7.13
2018-01-30T19:38:54.305Z,7.10
2018-01-30T19:41:26.788Z,7.08
2018-01-30T19:43:59.298Z,7.04
2018-01-30T19:46:31.799Z,7.04
2018-01-30T19:49:04.304Z,7.06
2018-01-30T19:51:36.817Z,7.05
2018-01-30T19:54:09.322Z,7.09
2018-01-30T19:56:41.824Z,7.07
2018-01-30T19:59:14.348Z,7.06
2018-01-30T20:01:46.852Z,7.01
2018-01-30T20:04:19.368Z,6.99
2018-01-30T20:06:51.866Z,6.94
2018-01-30T20:09:24.441Z,7.00
2018-01-30T20:11:57.210Z,6.98
2018-01-30T20:14:29.727Z,6.99
2018-01-30T20:17:02.219Z,7.01
2018-01-30T20:19:34.741Z,6.98
2018-01-30T20:22:07.247Z,6.96
2018-01-30T20:24:39.785Z,6.94
2018-01-30T20:27:12.279Z,6.99
2018-01-30T20:29:44.948Z,6.95
2018-01-30T20:32:17.470Z,6.96
2018-01-30T20:34:49.973Z,6.96
2018-01-30T20:37:23.413Z,6.99
2018-01-30T20:39:55.908Z,6.87
2018-01-30T20:42:28.432Z,6.87
2018-01-30T20:45:00.948Z,6.91
2018-01-30T20:47:33.468Z,6.86
2018-01-30T20:50:05.968Z,6.85
2018-01-30T20:52:38.489Z,6.82
2018-01-30T20:55:10.990Z,6.81
2018-01-30T20:57:43.508Z,6.83
2018-01-30T21:00:16.021Z,6.88
2018-01-30T21:02:48.555Z,6.88
2018-01-30T21:05:21.060Z,6.91
2018-01-30T21:07:53.567Z,6.89
2018-01-30T21:10:26.089Z,6.85
2018-01-30T21:12:58.613Z,6.83
2018-01-30T21:15:31.619Z,6.80
2018-01-30T21:18:04.169Z,6.78
2018-01-30T21:20:36.679Z,6.76
2018-01-30T21:23:09.205Z,6.80
2018-01-30T21:25:41.702Z,6.78
2018-01-30T21:28:14.213Z,6.75
2018-01-30T21:30:47.307Z,6.64
2018-01-30T21:33:19.860Z,6.56
2018-01-30T21:35:53.305Z,6.63
2018-01-30T21:38:27.491Z,6.57
2018-01-30T21:41:00.259Z,6.48
2018-01-30T21:43:33.135Z,6.58
2018-01-30T21:46:05.904Z,6.63
2018-01-30T21:48:38.822Z,6.61
2018-01-30T21:51:11.659Z,6.73
2018-01-30T21:53:44.698Z,6.54
2018-01-30T21:56:17.611Z,6.73
2018-01-30T21:58:50.168Z,6.86
2018-01-30T22:01:23.459Z,6.86
2018-01-30T22:03:55.975Z,6.90
2018-01-30T22:06:28.473Z,6.91
2018-01-30T22:09:01.033Z,6.93
2018-01-30T22:11:33.531Z,6.96
2018-01-30T22:14:06.046Z,6.99
2018-01-30T22:16:39.373Z,7.06
2018-01-30T22:19:11.882Z,7.15
2018-01-30T22:21:44.390Z,7.02
2018-01-30T22:24:16.908Z,7.13
2018-01-30T22:26:49.428Z,7.04
2018-01-30T22:29:21.942Z,7.07
2018-01-30T22:31:54.428Z,7.18
2018-01-30T22:34:26.941Z,7.23
2018-01-30T22:36:59.441Z,7.28
2018-01-30T22:39:31.954Z,7.33
2018-01-30T22:42:04.454Z,7.36
2018-01-30T22:44:36.986Z,7.40
